createdAt,value
2019-05-23T00:00:29.888Z,86.58
2019-05-23T00:01:30.113Z,85.97
2019-05-23T00:02:30.290Z,86.11
2019-05-23T00:03:30.511Z,86.48
2019-05-23T00:04:30.726Z,86.52
2019-05-23T00:05:30.895Z,87.04
2019-05-23T00:06:31.114Z,86.93
2019-05-23T00:07:31.297Z,87.04
2019-05-23T00:08:31.479Z,87.34
2019-05-23T00:09:31.672Z,86.63
2019-05-23T00:10:31.849Z,87.14
2019-05-23T00:11:32.039Z,87.28
2019-05-23T00:12:32.248Z,87.08
2019-05-23T00:13:32.426Z,86.98
2019-05-23T00:14:32.591Z,87.18
2019-05-23T00:15:32.740Z,86.98
2019-05-23T00:16:32.915Z,86.98
2019-05-23T00:17:33.096Z,87.08
2019-05-23T00:18:33.261Z,88.00
2019-05-23T00:19:33.483Z,88.24
2019-05-23T00:20:33.665Z,87.79
2019-05-23T00:21:33.810Z,87.73
2019-05-23T00:22:34.019Z,88.14
2019-05-23T00:23:34.196Z,87.84
2019-05-23T00:24:34.369Z,88.66
2019-05-23T00:25:35.443Z,89.37
2019-05-23T00:26:35.451Z,89.17
2019-05-23T00:27:34.901Z,88.45
2019-05-23T00:28:35.087Z,89.17
2019-05-23T00:29:35.948Z,88.86
2019-05-23T00:30:35.454Z,88.56
2019-05-23T00:31:35.638Z,88.45
2019-05-23T00:32:35.792Z,88.14
2019-05-23T00:33:35.954Z,87.73
2019-05-23T00:34:36.967Z,88.21
2019-05-23T00:35:36.214Z,87.08
2019-05-23T00:36:36.982Z,87.59
2019-05-23T00:37:36.493Z,86.66
2019-05-23T00:38:36.716Z,86.66
2019-05-23T00:39:36.948Z,86.05
2019-05-23T00:40:37.092Z,86.05
2019-05-23T00:41:37.256Z,86.05
2019-05-23T00:42:37.422Z,87.38
2019-05-23T00:43:37.573Z,87.18
2019-05-23T00:44:37.732Z,87.53
2019-05-23T00:45:37.897Z,87.63
2019-05-23T00:46:38.064Z,88.24
2019-05-23T00:47:39.219Z,87.73
2019-05-23T00:48:38.359Z,88.04
2019-05-23T00:49:38.535Z,87.94
2019-05-23T00:50:38.715Z,87.98
2019-05-23T00:51:38.948Z,87.98
2019-05-23T00:52:39.116Z,88.70
2019-05-23T00:53:39.976Z,88.70
2019-05-23T00:54:39.533Z,88.80
2019-05-23T00:55:39.729Z,88.33
2019-05-23T00:56:39.929Z,88.43
2019-05-23T00:57:40.058Z,87.82
2019-05-23T00:58:40.228Z,88.02
2019-05-23T00:59:40.941Z,88.64
2019-05-23T01:00:40.569Z,89.15
2019-05-23T01:01:40.746Z,89.46
2019-05-23T01:02:41.457Z,89.15
2019-05-23T01:03:41.105Z,89.56
2019-05-23T01:04:41.945Z,89.36
2019-05-23T01:05:41.518Z,88.29
2019-05-23T01:06:41.965Z,87.82
2019-05-23T01:07:41.860Z,88.12
2019-05-23T01:08:42.948Z,87.92
2019-05-23T01:09:43.959Z,87.92
2019-05-23T01:10:42.480Z,88.23
2019-05-23T01:11:42.660Z,88.74
2019-05-23T01:12:42.835Z,89.40
2019-05-23T01:13:42.999Z,89.50
2019-05-23T01:14:43.191Z,89.60
2019-05-23T01:15:43.366Z,89.40
2019-05-23T01:16:44.455Z,88.92
2019-05-23T01:17:43.708Z,88.92
2019-05-23T01:18:43.877Z,89.19
2019-05-23T01:19:44.043Z,89.44
2019-05-23T01:20:44.203Z,89.64
2019-05-23T01:21:44.348Z,89.23
2019-05-23T01:22:44.511Z,89.23
2019-05-23T01:23:44.759Z,88.82
2019-05-23T01:24:44.815Z,89.44
2019-05-23T01:25:45.019Z,89.44
2019-05-23T01:26:45.200Z,89.23
2019-05-23T01:27:45.391Z,89.64
2019-05-23T01:28:46.488Z,89.85
2019-05-23T01:29:49.635Z,89.44
2019-05-23T01:30:47.002Z,89.85
2019-05-23T01:31:46.157Z,90.72
2019-05-23T01:32:46.371Z,90.57
2019-05-23T01:33:46.546Z,90.88
2019-05-23T01:34:46.708Z,90.72
2019-05-23T01:35:46.892Z,90.61
2019-05-23T01:36:47.094Z,90.00
2019-05-23T01:37:47.272Z,90.09
2019-05-23T01:38:48.461Z,89.95
2019-05-23T01:39:47.589Z,90.09
2019-05-23T01:40:47.737Z,90.92
2019-05-23T01:41:47.967Z,90.61
2019-05-23T01:42:48.120Z,90.51
2019-05-23T01:43:48.293Z,90.98
2019-05-23T01:44:48.445Z,90.72
2019-05-23T01:45:48.605Z,90.26
2019-05-23T01:46:48.778Z,90.06
2019-05-23T01:47:48.963Z,89.44
2019-05-23T01:48:49.465Z,89.23
2019-05-23T01:49:49.364Z,88.92
2019-05-23T01:50:49.558Z,88.72
2019-05-23T01:51:49.743Z,89.75
2019-05-23T01:52:49.895Z,89.44
2019-05-23T01:53:50.060Z,89.75
2019-05-23T01:54:50.256Z,89.34
2019-05-23T01:55:50.407Z,89.13
2019-05-23T01:56:50.572Z,89.54
2019-05-23T01:57:50.736Z,89.85
2019-05-23T01:58:50.887Z,89.48
2019-05-23T02:00:07.836Z,89.89
2019-05-23T02:00:53.951Z,90.61
2019-05-23T02:01:51.481Z,90.72
2019-05-23T02:02:51.521Z,90.45
2019-05-23T02:03:51.692Z,90.61
2019-05-23T02:04:51.887Z,91.23
2019-05-23T02:05:52.047Z,90.61
2019-05-23T02:06:52.959Z,90.30
2019-05-23T02:07:52.439Z,90.20
2019-05-23T02:08:52.590Z,89.95
2019-05-23T02:09:52.777Z,89.54
2019-05-23T02:10:52.920Z,89.44
2019-05-23T02:11:53.965Z,89.85
2019-05-23T02:12:53.262Z,88.27
2019-05-23T02:13:53.411Z,87.96
2019-05-23T02:14:53.590Z,88.06
2019-05-23T02:15:53.749Z,87.85
2019-05-23T02:16:53.871Z,87.82
2019-05-23T02:17:54.063Z,87.20
2019-05-23T02:18:54.963Z,87.61
2019-05-23T02:19:54.434Z,87.55
2019-05-23T02:20:55.450Z,87.24
2019-05-23T02:21:56.447Z,88.47
2019-05-23T02:22:55.465Z,88.06
2019-05-23T02:23:55.099Z,88.17
2019-05-23T02:24:55.269Z,89.64
2019-05-23T02:25:55.413Z,89.44
2019-05-23T02:26:55.577Z,89.34
2019-05-23T02:27:56.747Z,89.34
2019-05-23T02:28:55.877Z,89.48
2019-05-23T02:29:56.475Z,89.17
2019-05-23T02:30:56.967Z,89.73
2019-05-23T02:31:56.951Z,89.94
2019-05-23T02:32:56.622Z,90.08
2019-05-23T02:33:56.793Z,90.55
2019-05-23T02:34:57.958Z,91.21
2019-05-23T02:35:58.955Z,91.42
2019-05-23T02:36:57.210Z,91.11
2019-05-23T02:37:57.409Z,91.56
2019-05-23T02:38:57.581Z,90.84
2019-05-23T02:39:57.744Z,92.08
2019-05-23T02:40:58.449Z,92.49
2019-05-23T02:41:58.110Z,92.80
2019-05-23T02:42:58.967Z,92.49
2019-05-23T02:43:58.461Z,92.69
2019-05-23T02:44:58.631Z,92.76
2019-05-23T02:45:58.793Z,92.24
2019-05-23T02:46:58.966Z,91.56
2019-05-23T02:47:59.107Z,91.87
2019-05-23T02:48:59.292Z,91.83
2019-05-23T02:49:59.456Z,91.93
2019-05-23T02:50:59.965Z,91.78
2019-05-23T02:51:59.860Z,90.96
2019-05-23T02:52:59.994Z,90.45
2019-05-23T02:54:00.151Z,90.24
2019-05-23T02:55:00.291Z,90.03
2019-05-23T02:56:00.441Z,91.17
2019-05-23T02:57:00.561Z,90.90
2019-05-23T02:58:00.970Z,91.06
2019-05-23T02:59:00.869Z,90.34
2019-05-23T03:00:01.008Z,90.24
2019-05-23T03:01:01.147Z,90.96
2019-05-23T03:02:01.277Z,90.45
2019-05-23T03:03:01.430Z,90.45
2019-05-23T03:04:02.466Z,89.58
2019-05-23T03:05:01.854Z,89.89
2019-05-23T03:06:02.036Z,89.58
2019-05-23T03:07:02.209Z,88.45
2019-05-23T03:08:02.953Z,87.90
2019-05-23T03:09:03.471Z,87.59
2019-05-23T03:10:02.710Z,88.14
2019-05-23T03:11:02.860Z,88.04
2019-05-23T03:12:03.018Z,88.45
2019-05-23T03:13:03.511Z,89.48
2019-05-23T03:14:03.442Z,89.48
2019-05-23T03:15:04.502Z,88.90
2019-05-23T03:16:05.495Z,89.77
2019-05-23T03:17:04.026Z,90.90
2019-05-23T03:18:04.974Z,90.73
2019-05-23T03:19:04.386Z,90.39
2019-05-23T03:20:05.490Z,90.84
2019-05-23T03:21:04.748Z,91.31
2019-05-23T03:22:04.996Z,90.59
2019-05-23T03:23:05.042Z,90.80
2019-05-23T03:24:05.998Z,90.69
2019-05-23T03:25:05.973Z,91.97
2019-05-23T03:26:05.623Z,92.03
2019-05-23T03:27:05.965Z,91.36
2019-05-23T03:28:06.998Z,91.77
2019-05-23T03:29:06.512Z,92.29
2019-05-23T03:30:06.984Z,91.77
2019-05-23T03:31:26.813Z,91.87
2019-05-23T03:32:09.479Z,91.83
2019-05-23T03:33:06.735Z,92.29
2019-05-23T03:34:06.908Z,91.87
2019-05-23T03:35:07.086Z,91.77
2019-05-23T03:36:07.271Z,90.73
2019-05-23T03:37:07.995Z,90.84
2019-05-23T03:38:07.676Z,91.05
2019-05-23T03:39:08.482Z,90.73
2019-05-23T03:40:08.486Z,91.05
2019-05-23T03:41:08.981Z,91.25
2019-05-23T03:42:08.980Z,92.29
2019-05-23T03:43:09.493Z,92.08
2019-05-23T03:44:08.999Z,92.08
2019-05-23T03:45:09.464Z,92.18
2019-05-23T03:46:09.494Z,92.18
2019-05-23T03:47:10.668Z,92.18
2019-05-23T03:48:09.139Z,92.49
2019-05-23T03:49:09.316Z,91.87
2019-05-23T03:50:09.480Z,91.77
2019-05-23T03:51:09.644Z,91.56
2019-05-23T03:52:10.471Z,91.46
2019-05-23T03:53:09.961Z,91.52
2019-05-23T03:54:10.145Z,91.66
2019-05-23T03:55:12.072Z,92.59
2019-05-23T03:56:10.439Z,92.29
2019-05-23T03:57:10.582Z,92.34
2019-05-23T03:58:10.739Z,92.18
2019-05-23T03:59:10.922Z,92.49
2019-05-23T04:00:11.065Z,92.08
2019-05-23T04:01:11.199Z,92.08
2019-05-23T04:02:11.365Z,91.93
2019-05-23T04:03:11.542Z,92.03
2019-05-23T04:04:11.702Z,91.93
2019-05-23T04:05:11.865Z,92.24
2019-05-23T04:06:12.005Z,91.42
2019-05-23T04:07:12.164Z,91.52
2019-05-23T04:08:13.347Z,92.14
2019-05-23T04:09:12.456Z,92.03
2019-05-23T04:10:12.606Z,91.11
2019-05-23T04:11:12.730Z,90.86
2019-05-23T04:12:12.895Z,91.52
2019-05-23T04:13:13.063Z,91.52
2019-05-23T04:14:13.262Z,91.47
2019-05-23T04:15:13.437Z,91.58
2019-05-23T04:16:13.557Z,91.17
2019-05-23T04:17:13.699Z,91.17
2019-05-23T04:18:13.818Z,90.81
2019-05-23T04:19:13.978Z,91.13
2019-05-23T04:20:14.119Z,90.57
2019-05-23T04:21:14.289Z,89.89
2019-05-23T04:22:14.428Z,90.16
2019-05-23T04:23:14.551Z,90.16
2019-05-23T04:24:14.715Z,90.26
2019-05-23T04:25:14.801Z,89.54
2019-05-23T04:26:14.983Z,89.64
2019-05-23T04:27:15.098Z,89.60
2019-05-23T04:28:15.306Z,89.19
2019-05-23T04:29:15.551Z,89.36
2019-05-23T04:30:15.657Z,87.61
2019-05-23T04:31:15.867Z,88.12
2019-05-23T04:32:16.014Z,88.08
2019-05-23T04:33:16.135Z,87.26
2019-05-23T04:34:16.246Z,86.79
2019-05-23T04:35:16.530Z,86.95
2019-05-23T04:36:16.686Z,86.24
2019-05-23T04:37:16.827Z,86.24
2019-05-23T04:38:16.980Z,86.75
2019-05-23T04:39:17.129Z,86.65
2019-05-23T04:40:17.287Z,87.16
2019-05-23T04:41:17.443Z,87.32
2019-05-23T04:42:17.577Z,87.16
2019-05-23T04:43:17.711Z,86.71
2019-05-23T04:44:17.837Z,86.60
2019-05-23T04:45:17.985Z,86.66
2019-05-23T04:46:18.164Z,85.36
2019-05-23T04:47:18.394Z,84.74
2019-05-23T04:48:18.548Z,82.86
2019-05-23T04:49:18.711Z,82.10
2019-05-23T04:50:18.922Z,82.41
2019-05-23T04:51:19.078Z,81.45
2019-05-23T04:52:19.280Z,81.41
2019-05-23T04:53:19.427Z,80.39
2019-05-23T04:54:19.561Z,79.94
2019-05-23T04:55:19.715Z,79.29
2019-05-23T04:56:19.863Z,78.13
2019-05-23T04:57:20.063Z,77.83
2019-05-23T04:58:20.285Z,78.07
2019-05-23T04:59:20.453Z,77.62
2019-05-23T05:00:20.613Z,78.13
2019-05-23T05:01:20.755Z,77.83
2019-05-23T05:02:26.203Z,77.72
2019-05-23T05:03:23.037Z,77.11
2019-05-23T05:04:21.139Z,77.93
2019-05-23T05:05:21.300Z,76.53
2019-05-23T05:06:21.485Z,75.82
2019-05-23T05:07:21.643Z,75.07
2019-05-23T05:08:21.809Z,74.11
2019-05-23T05:09:22.007Z,73.26
2019-05-23T05:10:22.143Z,73.91
2019-05-23T05:11:22.309Z,73.60
2019-05-23T05:12:22.487Z,73.26
2019-05-23T05:13:23.686Z,73.47
2019-05-23T05:14:22.807Z,73.26
2019-05-23T05:15:22.998Z,73.97
2019-05-23T05:16:23.138Z,73.77
2019-05-23T05:17:23.282Z,72.01
2019-05-23T05:18:23.435Z,71.56
2019-05-23T05:19:23.590Z,72.14
2019-05-23T05:20:23.752Z,72.55
2019-05-23T05:21:23.932Z,71.87
2019-05-23T05:22:24.114Z,71.73
2019-05-23T05:23:24.290Z,70.18
2019-05-23T05:24:24.461Z,70.79
2019-05-23T05:25:24.595Z,68.85
2019-05-23T05:26:24.818Z,68.85
2019-05-23T05:27:24.984Z,69.26
2019-05-23T05:28:25.180Z,69.02
2019-05-23T05:29:25.345Z,68.11
2019-05-23T05:30:25.498Z,69.13
2019-05-23T05:31:25.683Z,68.41
2019-05-23T05:32:41.508Z,67.97
2019-05-23T05:33:26.930Z,68.49
2019-05-23T05:34:26.060Z,68.18
2019-05-23T05:35:26.215Z,68.69
2019-05-23T05:36:26.373Z,68.79
2019-05-23T05:37:26.518Z,68.25
2019-05-23T05:38:28.776Z,68.08
2019-05-23T05:39:27.911Z,67.44
2019-05-23T05:40:27.055Z,67.03
2019-05-23T05:41:27.223Z,66.39
2019-05-23T05:42:27.367Z,66.60
2019-05-23T05:43:27.519Z,66.60
2019-05-23T05:44:27.703Z,66.49
2019-05-23T05:45:27.911Z,66.39
2019-05-23T05:46:28.079Z,68.25
2019-05-23T05:47:28.221Z,68.35
2019-05-23T05:48:28.473Z,67.41
2019-05-23T05:49:28.631Z,66.66
2019-05-23T05:50:28.838Z,66.23
2019-05-23T05:51:28.944Z,64.85
2019-05-23T05:52:29.158Z,64.24
2019-05-23T05:53:29.288Z,64.51
2019-05-23T05:54:29.449Z,63.37
2019-05-23T05:55:29.580Z,62.93
2019-05-23T05:56:29.743Z,62.05
2019-05-23T05:57:29.913Z,62.23
2019-05-23T05:58:30.058Z,61.69
2019-05-23T05:59:30.224Z,62.10
2019-05-23T06:00:30.424Z,61.16
2019-05-23T06:01:34.034Z,60.55
2019-05-23T06:02:31.820Z,60.12
2019-05-23T06:03:30.961Z,60.09
2019-05-23T06:04:31.102Z,59.91
2019-05-23T06:05:31.263Z,60.19
2019-05-23T06:06:31.452Z,60.69
2019-05-23T06:07:31.643Z,59.38
2019-05-23T06:08:31.826Z,59.15
2019-05-23T06:09:32.035Z,58.52
2019-05-23T06:10:32.261Z,57.51
2019-05-23T06:11:32.425Z,57.58
2019-05-23T06:12:32.617Z,57.68
2019-05-23T06:13:33.869Z,57.38
2019-05-23T06:14:32.942Z,57.51
2019-05-23T06:15:33.123Z,57.51
2019-05-23T06:16:33.350Z,58.32
2019-05-23T06:17:33.511Z,58.22
2019-05-23T06:18:33.703Z,57.38
2019-05-23T06:19:33.896Z,57.89
2019-05-23T06:20:34.083Z,58.09
2019-05-23T06:21:34.261Z,57.05
2019-05-23T06:22:34.351Z,56.45
2019-05-23T06:23:34.535Z,56.62
2019-05-23T06:24:44.366Z,56.40
2019-05-23T06:25:36.876Z,55.99
2019-05-23T06:26:34.995Z,55.43
2019-05-23T06:27:35.508Z,54.13
2019-05-23T06:28:36.012Z,53.90
2019-05-23T06:29:35.561Z,54.60
2019-05-23T06:30:36.009Z,53.70
2019-05-23T06:31:36.021Z,53.57
2019-05-23T06:32:37.027Z,53.57
2019-05-23T06:33:37.000Z,53.25
2019-05-23T06:34:36.476Z,52.94
2019-05-23T06:35:37.495Z,52.72
2019-05-23T06:36:36.918Z,51.37
2019-05-23T06:37:37.052Z,51.14
2019-05-23T06:38:37.996Z,50.92
2019-05-23T06:39:37.392Z,49.51
2019-05-23T06:40:37.568Z,49.29
2019-05-23T06:41:37.712Z,49.08
2019-05-23T06:42:37.958Z,49.26
2019-05-23T06:43:39.000Z,49.24
2019-05-23T06:44:38.269Z,47.52
2019-05-23T06:45:38.481Z,47.81
2019-05-23T06:46:38.650Z,47.39
2019-05-23T06:47:38.853Z,46.77
2019-05-23T06:48:45.231Z,46.77
2019-05-23T06:49:40.992Z,46.77
2019-05-23T06:50:39.365Z,45.73
2019-05-23T06:51:39.528Z,45.31
2019-05-23T06:52:40.021Z,44.81
2019-05-23T06:53:39.921Z,44.79
2019-05-23T06:54:41.001Z,45.26
2019-05-23T06:55:40.999Z,44.05
2019-05-23T06:56:41.016Z,44.24
2019-05-23T06:57:40.559Z,44.54
2019-05-23T06:58:40.717Z,44.62
2019-05-23T06:59:40.850Z,43.43
2019-05-23T07:00:41.513Z,43.63
2019-05-23T07:01:41.141Z,43.03
2019-05-23T07:02:42.271Z,43.73
2019-05-23T07:03:43.601Z,43.41
2019-05-23T07:04:43.502Z,43.11
2019-05-23T07:05:42.504Z,43.21
2019-05-23T07:06:42.020Z,42.69
2019-05-23T07:07:42.151Z,42.49
2019-05-23T07:08:42.516Z,42.07
2019-05-23T07:09:42.531Z,42.79
2019-05-23T07:10:42.886Z,43.29
2019-05-23T07:11:43.507Z,42.49
2019-05-23T07:12:43.519Z,42.59
2019-05-23T07:13:43.195Z,43.08
2019-05-23T07:14:43.406Z,42.89
2019-05-23T07:15:44.518Z,42.99
2019-05-23T07:16:44.809Z,42.86
2019-05-23T07:17:43.959Z,42.25
2019-05-23T07:18:44.697Z,42.15
2019-05-23T07:19:44.437Z,41.66
2019-05-23T07:20:45.766Z,41.95
2019-05-23T07:21:44.871Z,41.95
2019-05-23T07:22:45.118Z,40.86
2019-05-23T07:23:45.229Z,41.55
2019-05-23T07:24:57.350Z,41.25
2019-05-23T07:25:47.543Z,40.58
2019-05-23T07:26:45.679Z,42.27
2019-05-23T07:27:45.845Z,41.75
2019-05-23T07:28:46.038Z,40.94
2019-05-23T07:29:46.219Z,41.12
2019-05-23T07:30:46.404Z,38.73
2019-05-23T07:31:46.591Z,38.64
2019-05-23T07:32:46.750Z,38.24
2019-05-23T07:34:01.210Z,38.14
2019-05-23T07:34:49.154Z,39.41
2019-05-23T07:35:47.378Z,39.11
2019-05-23T07:36:48.521Z,37.43
2019-05-23T07:37:47.792Z,38.62
2019-05-23T07:38:47.940Z,38.43
2019-05-23T07:39:48.086Z,38.64
2019-05-23T07:40:48.327Z,38.50
2019-05-23T07:41:48.449Z,35.71
2019-05-23T07:42:48.599Z,36.13
2019-05-23T07:43:48.747Z,37.96
2019-05-23T07:44:48.873Z,38.18
2019-05-23T07:45:49.532Z,38.37
2019-05-23T07:46:49.215Z,37.86
2019-05-23T07:47:49.374Z,38.56
2019-05-23T07:48:49.621Z,38.83
2019-05-23T07:49:49.667Z,36.08
2019-05-23T07:50:49.894Z,38.89
2019-05-23T07:51:50.045Z,39.29
2019-05-23T07:52:51.021Z,36.19
2019-05-23T07:53:50.783Z,35.16
2019-05-23T07:54:50.627Z,36.77
2019-05-23T07:55:50.792Z,35.77
2019-05-23T07:56:50.970Z,35.97
2019-05-23T07:57:51.110Z,36.07
2019-05-23T07:58:51.299Z,36.49
2019-05-23T07:59:51.461Z,36.42
2019-05-23T08:00:51.606Z,38.11
2019-05-23T08:01:51.781Z,36.62
2019-05-23T08:02:51.965Z,37.63
2019-05-23T08:03:54.029Z,36.62
2019-05-23T08:04:52.291Z,36.92
2019-05-23T08:05:52.466Z,36.29
2019-05-23T08:06:52.661Z,35.77
2019-05-23T08:07:52.846Z,35.66
2019-05-23T08:08:53.544Z,34.06
2019-05-23T08:09:53.220Z,36.35
2019-05-23T08:10:53.545Z,36.41
2019-05-23T08:11:53.607Z,34.63
2019-05-23T08:12:54.530Z,34.33
2019-05-23T08:13:54.912Z,33.24
2019-05-23T08:14:54.013Z,34.15
2019-05-23T08:15:55.177Z,34.05
2019-05-23T08:16:54.322Z,34.45
2019-05-23T08:17:54.549Z,33.75
2019-05-23T08:18:55.724Z,34.55
2019-05-23T08:19:54.864Z,33.83
2019-05-23T08:20:56.022Z,33.34
2019-05-23T08:21:56.289Z,31.34
2019-05-23T08:22:55.487Z,32.51
2019-05-23T08:23:56.052Z,31.90
2019-05-23T08:24:57.544Z,30.84
2019-05-23T08:25:56.575Z,33.47
2019-05-23T08:26:56.226Z,34.56
2019-05-23T08:27:56.389Z,34.01
2019-05-23T08:29:22.235Z,32.51
2019-05-23T08:30:01.983Z,32.78
2019-05-23T08:30:57.538Z,33.47
2019-05-23T08:31:57.052Z,31.21
2019-05-23T08:32:57.214Z,31.54
2019-05-23T08:33:57.404Z,33.06
2019-05-23T08:34:57.559Z,34.96
2019-05-23T08:35:58.543Z,34.15
2019-05-23T08:36:57.933Z,34.34
2019-05-23T08:37:58.086Z,33.15
2019-05-23T08:38:58.564Z,34.56
2019-05-23T08:39:58.484Z,34.08
2019-05-23T08:40:59.546Z,34.88
2019-05-23T08:41:59.580Z,36.15
2019-05-23T08:42:59.548Z,35.85
2019-05-23T08:43:59.231Z,33.55
2019-05-23T08:44:59.361Z,33.97
2019-05-23T08:45:59.498Z,33.87
2019-05-23T08:47:00.545Z,33.55
2019-05-23T08:48:00.549Z,33.78
2019-05-23T08:49:00.089Z,33.88
2019-05-23T08:50:01.063Z,34.64
2019-05-23T08:51:01.061Z,33.54
2019-05-23T08:52:00.433Z,32.64
2019-05-23T08:53:00.639Z,33.33
2019-05-23T08:54:00.818Z,32.82
2019-05-23T08:55:00.950Z,31.32
2019-05-23T08:56:02.123Z,31.42
2019-05-23T08:57:02.047Z,31.42
2019-05-23T08:58:02.097Z,31.24
2019-05-23T08:59:01.629Z,31.65
2019-05-23T09:00:01.796Z,31.54
2019-05-23T09:01:01.965Z,30.56
2019-05-23T09:02:02.138Z,33.04
2019-05-23T09:03:03.068Z,33.36
2019-05-23T09:04:02.480Z,32.75
2019-05-23T09:05:06.181Z,32.35
2019-05-23T09:06:04.555Z,32.26
2019-05-23T09:07:03.556Z,33.27
2019-05-23T09:08:03.218Z,32.24
2019-05-23T09:09:03.577Z,33.04
2019-05-23T09:10:03.622Z,35.11
2019-05-23T09:11:04.557Z,33.60
2019-05-23T09:12:04.545Z,33.20
2019-05-23T09:13:05.066Z,32.86
2019-05-23T09:14:04.224Z,33.23
2019-05-23T09:15:04.402Z,33.40
2019-05-23T09:16:04.602Z,33.48
2019-05-23T09:17:04.829Z,33.60
2019-05-23T09:18:04.944Z,34.25
2019-05-23T09:19:05.118Z,35.01
2019-05-23T09:20:05.584Z,33.39
2019-05-23T09:21:05.485Z,31.90
2019-05-23T09:22:05.658Z,32.08
2019-05-23T09:23:05.835Z,33.06
2019-05-23T09:24:06.562Z,31.57
2019-05-23T09:25:07.229Z,30.99
2019-05-23T09:26:07.061Z,31.37
2019-05-23T09:27:07.582Z,30.57
2019-05-23T09:28:06.722Z,30.49
2019-05-23T09:29:06.930Z,31.50
2019-05-23T09:30:07.581Z,31.41
2019-05-23T09:31:07.246Z,32.89
2019-05-23T09:32:07.413Z,31.70
2019-05-23T09:33:07.605Z,30.69
2019-05-23T09:34:08.568Z,31.09
2019-05-23T09:35:20.271Z,31.00
2019-05-23T09:36:10.115Z,30.97
2019-05-23T09:37:09.071Z,31.57
2019-05-23T09:38:08.570Z,31.47
2019-05-23T09:39:08.728Z,30.82
2019-05-23T09:40:08.914Z,33.23
2019-05-23T09:41:09.567Z,33.92
2019-05-23T09:42:12.203Z,30.83
2019-05-23T09:43:10.411Z,31.83
2019-05-23T09:44:10.078Z,33.65
2019-05-23T09:45:10.091Z,33.67
2019-05-23T09:46:09.850Z,34.34
2019-05-23T09:47:10.591Z,32.01
2019-05-23T09:48:10.128Z,31.30
2019-05-23T09:49:11.197Z,30.93
2019-05-23T09:50:12.074Z,32.74
2019-05-23T09:51:11.091Z,32.93
2019-05-23T09:52:12.152Z,32.14
2019-05-23T09:53:11.572Z,33.37
2019-05-23T09:54:11.331Z,34.27
2019-05-23T09:55:11.482Z,36.27
2019-05-23T09:56:12.129Z,35.11
2019-05-23T09:57:12.579Z,36.44
2019-05-23T09:58:12.616Z,36.84
2019-05-23T09:59:14.071Z,38.16
2019-05-23T10:00:13.280Z,36.74
2019-05-23T10:01:12.531Z,36.84
2019-05-23T10:02:12.685Z,35.94
2019-05-23T10:03:13.090Z,35.63
2019-05-23T10:04:13.594Z,35.99
2019-05-23T10:05:14.080Z,35.08
2019-05-23T10:06:13.606Z,34.86
2019-05-23T10:07:14.087Z,35.71
2019-05-23T10:08:13.729Z,35.93
2019-05-23T10:09:13.931Z,36.21
2019-05-23T10:10:14.136Z,36.21
2019-05-23T10:11:14.368Z,36.13
2019-05-23T10:12:14.530Z,36.41
2019-05-23T10:13:14.778Z,36.87
2019-05-23T10:14:14.959Z,35.64
2019-05-23T10:15:15.136Z,34.33
2019-05-23T10:16:15.618Z,35.13
2019-05-23T10:17:16.087Z,35.03
2019-05-23T10:18:15.752Z,34.41
2019-05-23T10:19:15.914Z,34.52
2019-05-23T10:20:16.075Z,34.43
2019-05-23T10:21:16.595Z,34.63
2019-05-23T10:22:16.510Z,33.37
2019-05-23T10:23:16.678Z,34.78
2019-05-23T10:24:16.838Z,33.83
2019-05-23T10:25:17.604Z,35.14
2019-05-23T10:26:17.138Z,36.04
2019-05-23T10:27:17.329Z,35.83
2019-05-23T10:28:18.121Z,36.19
2019-05-23T10:29:17.706Z,35.47
2019-05-23T10:30:18.611Z,34.76
2019-05-23T10:31:18.005Z,33.85
2019-05-23T10:32:18.600Z,34.52
2019-05-23T10:33:18.365Z,33.04
2019-05-23T10:34:19.086Z,33.56
2019-05-23T10:35:19.611Z,33.70
2019-05-23T10:36:19.621Z,34.31
2019-05-23T10:37:19.105Z,35.53
2019-05-23T10:38:19.686Z,36.13
2019-05-23T10:39:20.095Z,35.35
2019-05-23T10:40:19.489Z,37.24
2019-05-23T10:41:19.657Z,37.94
2019-05-23T10:42:20.587Z,37.42
2019-05-23T10:43:20.106Z,35.97
2019-05-23T10:44:20.175Z,35.16
2019-05-23T10:45:21.091Z,34.16
2019-05-23T10:46:21.522Z,33.86
2019-05-23T10:47:20.659Z,33.56
2019-05-23T10:48:21.880Z,34.06
2019-05-23T10:49:21.601Z,35.42
2019-05-23T10:50:22.109Z,34.00
2019-05-23T10:51:21.350Z,34.59
2019-05-23T10:52:21.532Z,33.69
2019-05-23T10:53:22.118Z,32.28
2019-05-23T10:54:22.101Z,31.47
2019-05-23T10:55:23.099Z,31.50
2019-05-23T10:56:23.108Z,33.90
2019-05-23T10:57:23.098Z,31.51
2019-05-23T10:58:23.112Z,33.52
2019-05-23T10:59:23.606Z,33.23
2019-05-23T11:00:22.966Z,32.56
2019-05-23T11:01:23.181Z,31.86
2019-05-23T11:02:26.975Z,33.45
2019-05-23T11:03:23.579Z,32.17
2019-05-23T11:04:24.122Z,33.91
2019-05-23T11:05:24.601Z,35.49
2019-05-23T11:06:24.612Z,35.89
2019-05-23T11:07:25.106Z,35.49
2019-05-23T11:08:29.333Z,34.98
2019-05-23T11:09:37.197Z,34.76
2019-05-23T11:10:26.698Z,34.05
2019-05-23T11:11:25.622Z,33.72
2019-05-23T11:12:26.162Z,33.12
2019-05-23T11:13:25.300Z,33.52
2019-05-23T11:14:25.644Z,33.83
2019-05-23T11:15:26.621Z,34.05
2019-05-23T11:16:25.886Z,34.06
2019-05-23T11:17:26.048Z,34.16
2019-05-23T11:18:26.247Z,34.76
2019-05-23T11:19:26.633Z,36.65
2019-05-23T11:20:26.568Z,33.56
2019-05-23T11:21:26.762Z,33.55
2019-05-23T11:22:26.931Z,33.34
2019-05-23T11:23:27.146Z,33.62
2019-05-23T11:24:27.668Z,33.00
2019-05-23T11:25:28.167Z,32.49
2019-05-23T11:26:27.568Z,32.20
2019-05-23T11:27:28.610Z,31.90
2019-05-23T11:28:27.873Z,30.69
2019-05-23T11:29:28.626Z,28.60
2019-05-23T11:30:28.154Z,28.22
2019-05-23T11:31:28.313Z,30.60
2019-05-23T11:32:29.125Z,30.09
2019-05-23T11:33:28.668Z,28.41
2019-05-23T11:34:29.621Z,29.58
2019-05-23T11:35:28.990Z,27.99
2019-05-23T11:36:35.630Z,29.17
2019-05-23T11:37:31.294Z,29.17
2019-05-23T11:38:30.113Z,30.28
2019-05-23T11:39:29.731Z,31.18
2019-05-23T11:40:33.502Z,31.41
2019-05-23T11:41:30.039Z,32.49
2019-05-23T11:42:30.281Z,31.48
2019-05-23T11:43:30.423Z,31.38
2019-05-23T11:44:31.120Z,31.07
2019-05-23T11:45:31.130Z,29.98
2019-05-23T11:46:30.868Z,32.18
2019-05-23T11:47:32.293Z,31.38
2019-05-23T11:48:33.131Z,31.50
2019-05-23T11:49:31.371Z,31.50
2019-05-23T11:50:31.551Z,32.09
2019-05-23T11:51:31.708Z,31.80
2019-05-23T11:52:32.621Z,32.51
2019-05-23T11:53:32.044Z,30.15
2019-05-23T11:54:32.189Z,29.85
2019-05-23T11:55:33.176Z,30.73
2019-05-23T11:56:32.564Z,30.75
2019-05-23T11:57:32.720Z,31.43
2019-05-23T11:58:33.143Z,32.01
2019-05-23T11:59:33.612Z,32.08
2019-05-23T12:00:34.319Z,31.57
2019-05-23T12:01:34.119Z,31.07
2019-05-23T12:02:34.622Z,31.67
2019-05-23T12:03:34.157Z,30.07
2019-05-23T12:04:34.631Z,29.39
2019-05-23T12:05:35.139Z,31.38
2019-05-23T12:06:51.714Z,30.41
2019-05-23T12:07:36.639Z,30.60
2019-05-23T12:08:35.153Z,30.42
2019-05-23T12:09:35.034Z,30.32
2019-05-23T12:10:35.209Z,31.90
2019-05-23T12:11:41.931Z,30.72
2019-05-23T12:12:37.621Z,32.11
2019-05-23T12:13:35.720Z,30.82
2019-05-23T12:14:35.866Z,31.70
2019-05-23T12:15:36.079Z,31.50
2019-05-23T12:16:36.375Z,31.40
2019-05-23T12:17:36.449Z,31.51
2019-05-23T12:18:36.617Z,32.31
2019-05-23T12:19:36.793Z,31.00
2019-05-23T12:20:36.972Z,30.90
2019-05-23T12:21:37.633Z,31.80
2019-05-23T12:22:37.686Z,30.42
2019-05-23T12:23:37.517Z,31.91
2019-05-23T12:24:38.671Z,31.20
2019-05-23T12:25:38.638Z,31.60
2019-05-23T12:26:38.011Z,31.30
2019-05-23T12:27:38.273Z,30.90
2019-05-23T12:28:39.144Z,30.72
2019-05-23T12:29:38.431Z,31.00
2019-05-23T12:30:39.139Z,31.70
2019-05-23T12:31:39.646Z,30.89
2019-05-23T12:32:38.913Z,31.18
2019-05-23T12:33:39.076Z,30.29
2019-05-23T12:34:39.232Z,32.06
2019-05-23T12:35:39.404Z,30.16
2019-05-23T12:36:39.553Z,29.95
2019-05-23T12:37:40.644Z,30.05
2019-05-23T12:38:40.939Z,29.16
2019-05-23T12:39:40.645Z,29.86
2019-05-23T12:40:41.153Z,30.18
2019-05-23T12:41:40.403Z,30.08
2019-05-23T12:42:41.141Z,30.18
2019-05-23T12:43:40.782Z,29.28
2019-05-23T12:44:40.921Z,30.08
2019-05-23T12:45:41.643Z,31.38
2019-05-23T12:46:41.273Z,31.47
2019-05-23T12:47:41.453Z,31.37
2019-05-23T12:48:41.648Z,30.56
2019-05-23T12:49:41.807Z,31.05
2019-05-23T12:50:42.643Z,30.68
2019-05-23T12:51:43.153Z,29.77
2019-05-23T12:52:42.313Z,31.18
2019-05-23T12:53:42.453Z,29.50
2019-05-23T12:54:42.650Z,31.70